sensor_id;sensor_type;location;lat;lon;timestamp;temperature;humidity
16907;DHT22;8570;52.380;4.654;2023-01-15T00:03:12;7.60;99.90
16907;DHT22;8570;52.380;4.654;2023-01-15T00:08:16;7.60;99.90
16907;DHT22;8570;52.380;4.654;2023-01-15T00:13:17;7.50;99.90
16907;DHT22;8570;52.380;4.654;2023-01-15T00:18:19;7.50;99.90
16907;DHT22;8570;52.380;4.654;2023-01-15T00:23:23;7.50;99.90
16907;DHT22;8570;52.380;4.654;2023-01-15T00:28:38;7.50;99.90
16907;DHT22;8570;52.380;4.654;2023-01-15T00:33:40;7.50;99.90
16907;DHT22;8570;52.380;4.654;2023-01-15T00:38:44;7.50;99.90
16907;DHT22;8570;52.380;4.654;2023-01-15T00:43:52;7.50;99.90
16907;DHT22;8570;52.380;4.654;2023-01-15T00:48:56;7.40;99.90
16907;DHT22;8570;52.380;4.654;2023-01-15T00:54:00;7.40;99.90
16907;DHT22;8570;52.380;4.654;2023-01-15T00:59:03;7.40;99.90
16907;DHT22;8570;52.380;4.654;2023-01-15T01:04:06;7.40;99.90
16907;DHT22;8570;52.380;4.654;2023-01-15T01:09:12;7.30;99.90
16907;DHT22;8570;52.380;4.654;2023-01-15T01:14:14;7.30;99.90
16907;DHT22;8570;52.380;4.654;2023-01-15T01:19:18;7.30;99.90
16907;DHT22;8570;52.380;4.654;2023-01-15T01:24:23;7.30;99.90
16907;DHT22;8570;52.380;4.654;2023-01-15T01:29:25;7.30;99.90
16907;DHT22;8570;52.380;4.654;2023-01-15T01:34:30;7.30;99.90
16907;DHT22;8570;52.380;4.654;2023-01-15T01:39:34;7.30;99.90
16907;DHT22;8570;52.380;4.654;2023-01-15T01:45:08;7.30;99.90
16907;DHT22;8570;52.380;4.654;2023-01-15T01:50:13;7.30;99.90
16907;DHT22;8570;52.380;4.654;2023-01-15T01:55:18;7.30;99.90
16907;DHT22;8570;52.380;4.654;2023-01-15T02:00:23;7.30;99.90
16907;DHT22;8570;52.380;4.654;2023-01-15T02:05:30;7.30;99.90
16907;DHT22;8570;52.380;4.654;2023-01-15T02:10:38;7.30;99.90
16907;DHT22;8570;52.380;4.654;2023-01-15T02:15:44;7.30;99.90
16907;DHT22;8570;52.380;4.654;2023-01-15T02:20:51;7.30;99.90
16907;DHT22;8570;52.380;4.654;2023-01-15T02:31:36;7.30;99.90
16907;DHT22;8570;52.380;4.654;2023-01-15T02:36:45;7.30;99.90
16907;DHT22;8570;52.380;4.654;2023-01-15T02:42:01;7.20;99.90
16907;DHT22;8570;52.380;4.654;2023-01-15T02:47:06;7.30;99.90
16907;DHT22;8570;52.380;4.654;2023-01-15T02:52:16;7.30;99.90
16907;DHT22;8570;52.380;4.654;2023-01-15T02:57:24;7.20;99.90
16907;DHT22;8570;52.380;4.654;2023-01-15T03:02:52;7.20;99.90
16907;DHT22;8570;52.380;4.654;2023-01-15T03:07:59;7.20;99.90
16907;DHT22;8570;52.380;4.654;2023-01-15T03:13:02;7.20;99.90
16907;DHT22;8570;52.380;4.654;2023-01-15T03:18:10;7.10;99.90
16907;DHT22;8570;52.380;4.654;2023-01-15T03:23:15;7.10;99.90
16907;DHT22;8570;52.380;4.654;2023-01-15T03:28:24;7.10;99.90
16907;DHT22;8570;52.380;4.654;2023-01-15T03:33:29;7.10;99.90
16907;DHT22;8570;52.380;4.654;2023-01-15T03:38:33;7.10;99.90
16907;DHT22;8570;52.380;4.654;2023-01-15T03:43:44;7.10;99.90
16907;DHT22;8570;52.380;4.654;2023-01-15T03:48:56;7.10;99.90
16907;DHT22;8570;52.380;4.654;2023-01-15T03:54:05;7.10;99.90
16907;DHT22;8570;52.380;4.654;2023-01-15T03:59:14;7.10;99.90
16907;DHT22;8570;52.380;4.654;2023-01-15T04:04:19;7.10;99.90
16907;DHT22;8570;52.380;4.654;2023-01-15T04:09:27;7.10;99.90
16907;DHT22;8570;52.380;4.654;2023-01-15T04:14:29;7.10;99.90
16907;DHT22;8570;52.380;4.654;2023-01-15T04:19:33;7.10;99.90
16907;DHT22;8570;52.380;4.654;2023-01-15T04:24:35;7.10;99.90
16907;DHT22;8570;52.380;4.654;2023-01-15T04:29:39;7.10;99.90
16907;DHT22;8570;52.380;4.654;2023-01-15T04:34:45;7.10;99.90
16907;DHT22;8570;52.380;4.654;2023-01-15T04:39:47;7.10;99.90
16907;DHT22;8570;52.380;4.654;2023-01-15T04:44:49;7.10;99.90
16907;DHT22;8570;52.380;4.654;2023-01-15T04:49:52;7.10;99.90
16907;DHT22;8570;52.380;4.654;2023-01-15T04:54:57;7.10;99.90
16907;DHT22;8570;52.380;4.654;2023-01-15T05:00:03;7.00;99.90
16907;DHT22;8570;52.380;4.654;2023-01-15T05:05:13;7.00;99.90
16907;DHT22;8570;52.380;4.654;2023-01-15T05:10:17;6.90;99.90
16907;DHT22;8570;52.380;4.654;2023-01-15T05:15:19;6.90;99.90
16907;DHT22;8570;52.380;4.654;2023-01-15T05:20:34;6.90;99.90
16907;DHT22;8570;52.380;4.654;2023-01-15T05:25:39;6.80;99.90
16907;DHT22;8570;52.380;4.654;2023-01-15T05:30:43;6.80;99.90
16907;DHT22;8570;52.380;4.654;2023-01-15T05:35:47;6.70;99.90
16907;DHT22;8570;52.380;4.654;2023-01-15T05:40:49;6.70;99.90
16907;DHT22;8570;52.380;4.654;2023-01-15T05:45:51;6.60;99.90
16907;DHT22;8570;52.380;4.654;2023-01-15T05:51:00;6.60;99.90
16907;DHT22;8570;52.380;4.654;2023-01-15T05:56:06;6.50;99.90
16907;DHT22;8570;52.380;4.654;2023-01-15T06:01:09;6.50;99.90
16907;DHT22;8570;52.380;4.654;2023-01-15T06:06:14;6.40;99.90
16907;DHT22;8570;52.380;4.654;2023-01-15T06:11:19;6.40;99.90
16907;DHT22;8570;52.380;4.654;2023-01-15T06:16:24;6.40;99.90
16907;DHT22;8570;52.380;4.654;2023-01-15T06:21:31;6.40;99.90
16907;DHT22;8570;52.380;4.654;2023-01-15T06:26:33;6.30;99.90
16907;DHT22;8570;52.380;4.654;2023-01-15T06:31:38;6.40;99.90
16907;DHT22;8570;52.380;4.654;2023-01-15T06:36:48;6.30;99.90
16907;DHT22;8570;52.380;4.654;2023-01-15T06:41:50;6.30;99.90
16907;DHT22;8570;52.380;4.654;2023-01-15T06:47:15;6.30;99.90
16907;DHT22;8570;52.380;4.654;2023-01-15T06:52:26;6.30;99.90
16907;DHT22;8570;52.380;4.654;2023-01-15T06:57:29;6.30;99.90
16907;DHT22;8570;52.380;4.654;2023-01-15T07:02:31;6.40;99.90
16907;DHT22;8570;52.380;4.654;2023-01-15T07:07:34;6.40;99.90
16907;DHT22;8570;52.380;4.654;2023-01-15T07:12:37;6.40;99.90
16907;DHT22;8570;52.380;4.654;2023-01-15T07:17:41;6.40;99.90
16907;DHT22;8570;52.380;4.654;2023-01-15T07:22:47;6.40;99.90
16907;DHT22;8570;52.380;4.654;2023-01-15T07:27:55;6.40;99.90
16907;DHT22;8570;52.380;4.654;2023-01-15T07:32:57;6.40;99.90
16907;DHT22;8570;52.380;4.654;2023-01-15T07:38:01;6.40;99.90
16907;DHT22;8570;52.380;4.654;2023-01-15T07:43:03;6.40;99.90
16907;DHT22;8570;52.380;4.654;2023-01-15T07:48:22;6.30;99.90
16907;DHT22;8570;52.380;4.654;2023-01-15T07:53:43;6.20;99.90
16907;DHT22;8570;52.380;4.654;2023-01-15T07:58:44;6.10;99.90
16907;DHT22;8570;52.380;4.654;2023-01-15T08:03:49;6.10;99.90
16907;DHT22;8570;52.380;4.654;2023-01-15T08:08:53;6.20;99.90
16907;DHT22;8570;52.380;4.654;2023-01-15T08:13:55;6.20;99.90
16907;DHT22;8570;52.380;4.654;2023-01-15T08:19:14;6.30;99.90
16907;DHT22;8570;52.380;4.654;2023-01-15T08:24:18;6.30;99.90
16907;DHT22;8570;52.380;4.654;2023-01-15T08:29:26;6.30;99.90
16907;DHT22;8570;52.380;4.654;2023-01-15T08:34:30;6.40;99.90
16907;DHT22;8570;52.380;4.654;2023-01-15T08:39:43;6.50;99.90
16907;DHT22;8570;52.380;4.654;2023-01-15T08:44:45;6.50;99.90
16907;DHT22;8570;52.380;4.654;2023-01-15T08:49:47;6.60;99.90
16907;DHT22;8570;52.380;4.654;2023-01-15T08:54:51;6.60;99.90
16907;DHT22;8570;52.380;4.654;2023-01-15T08:59:53;6.60;99.90
16907;DHT22;8570;52.380;4.654;2023-01-15T09:04:55;6.70;99.90
16907;DHT22;8570;52.380;4.654;2023-01-15T09:10:10;6.70;99.90
16907;DHT22;8570;52.380;4.654;2023-01-15T09:15:12;6.80;99.90
16907;DHT22;8570;52.380;4.654;2023-01-15T09:20:14;6.80;99.90
16907;DHT22;8570;52.380;4.654;2023-01-15T09:25:18;6.90;99.90
16907;DHT22;8570;52.380;4.654;2023-01-15T09:30:23;7.00;99.90
16907;DHT22;8570;52.380;4.654;2023-01-15T09:35:27;7.00;99.90
16907;DHT22;8570;52.380;4.654;2023-01-15T09:40:41;7.10;99.90
16907;DHT22;8570;52.380;4.654;2023-01-15T09:45:49;7.10;99.90
16907;DHT22;8570;52.380;4.654;2023-01-15T09:51:02;7.40;99.90
16907;DHT22;8570;52.380;4.654;2023-01-15T09:56:18;7.50;99.90
16907;DHT22;8570;52.380;4.654;2023-01-15T10:01:30;7.40;99.90
16907;DHT22;8570;52.380;4.654;2023-01-15T10:06:42;7.40;99.90
16907;DHT22;8570;52.380;4.654;2023-01-15T10:12:10;7.40;99.90
16907;DHT22;8570;52.380;4.654;2023-01-15T10:23:32;7.50;99.90
16907;DHT22;8570;52.380;4.654;2023-01-15T10:29:02;7.70;99.90
16907;DHT22;8570;52.380;4.654;2023-01-15T10:34:27;7.70;99.90
16907;DHT22;8570;52.380;4.654;2023-01-15T10:39:47;7.80;99.90
16907;DHT22;8570;52.380;4.654;2023-01-15T10:45:00;7.70;99.90
16907;DHT22;8570;52.380;4.654;2023-01-15T10:50:18;7.70;99.90
16907;DHT22;8570;52.380;4.654;2023-01-15T10:55:31;7.60;99.90
16907;DHT22;8570;52.380;4.654;2023-01-15T11:00:49;7.70;99.90
16907;DHT22;8570;52.380;4.654;2023-01-15T11:06:00;7.70;99.90
16907;DHT22;8570;52.380;4.654;2023-01-15T11:11:21;7.70;99.90
16907;DHT22;8570;52.380;4.654;2023-01-15T11:16:51;7.70;99.90
16907;DHT22;8570;52.380;4.654;2023-01-15T11:28:03;7.70;99.90
16907;DHT22;8570;52.380;4.654;2023-01-15T11:33:22;7.70;99.90
16907;DHT22;8570;52.380;4.654;2023-01-15T11:38:43;7.80;99.90
16907;DHT22;8570;52.380;4.654;2023-01-15T11:44:08;7.80;99.90
16907;DHT22;8570;52.380;4.654;2023-01-15T11:49:30;7.80;99.90
16907;DHT22;8570;52.380;4.654;2023-01-15T11:54:51;7.90;99.90
16907;DHT22;8570;52.380;4.654;2023-01-15T12:00:00;7.90;99.90
16907;DHT22;8570;52.380;4.654;2023-01-15T12:05:20;7.80;99.90
16907;DHT22;8570;52.380;4.654;2023-01-15T12:10:29;7.80;99.90
16907;DHT22;8570;52.380;4.654;2023-01-15T12:15:53;7.90;99.90
16907;DHT22;8570;52.380;4.654;2023-01-15T12:27:01;7.80;99.90
16907;DHT22;8570;52.380;4.654;2023-01-15T12:32:45;7.80;99.90
16907;DHT22;8570;52.380;4.654;2023-01-15T12:38:31;7.70;99.90
16907;DHT22;8570;52.380;4.654;2023-01-15T12:44:02;7.70;99.90
16907;DHT22;8570;52.380;4.654;2023-01-15T12:50:10;7.70;99.90
16907;DHT22;8570;52.380;4.654;2023-01-15T12:55:15;7.70;99.90
16907;DHT22;8570;52.380;4.654;2023-01-15T13:00:29;7.60;99.90
16907;DHT22;8570;52.380;4.654;2023-01-15T13:05:44;7.60;99.90
16907;DHT22;8570;52.380;4.654;2023-01-15T13:11:02;7.60;99.90
16907;DHT22;8570;52.380;4.654;2023-01-15T13:22:47;7.70;99.90
16907;DHT22;8570;52.380;4.654;2023-01-15T13:28:46;7.70;99.90
16907;DHT22;8570;52.380;4.654;2023-01-15T13:33:34;7.70;99.90
16907;DHT22;8570;52.380;4.654;2023-01-15T13:38:42;7.60;99.90
16907;DHT22;8570;52.380;4.654;2023-01-15T13:43:50;7.50;99.90
16907;DHT22;8570;52.380;4.654;2023-01-15T13:48:56;7.30;99.90
16907;DHT22;8570;52.380;4.654;2023-01-15T13:54:00;7.00;99.90
16907;DHT22;8570;52.380;4.654;2023-01-15T13:59:23;6.80;99.90
16907;DHT22;8570;52.380;4.654;2023-01-15T14:04:38;6.60;99.90
16907;DHT22;8570;52.380;4.654;2023-01-15T14:09:43;6.50;99.90
16907;DHT22;8570;52.380;4.654;2023-01-15T14:15:12;6.40;99.90
16907;DHT22;8570;52.380;4.654;2023-01-15T14:20:37;6.30;99.90
16907;DHT22;8570;52.380;4.654;2023-01-15T14:25:56;6.30;99.90
16907;DHT22;8570;52.380;4.654;2023-01-15T14:31:18;6.20;99.90
16907;DHT22;8570;52.380;4.654;2023-01-15T14:36:26;6.20;99.90
16907;DHT22;8570;52.380;4.654;2023-01-15T14:41:30;6.20;99.90
16907;DHT22;8570;52.380;4.654;2023-01-15T14:46:39;6.20;99.90
16907;DHT22;8570;52.380;4.654;2023-01-15T14:51:47;6.20;99.90
16907;DHT22;8570;52.380;4.654;2023-01-15T14:56:52;6.30;99.90
16907;DHT22;8570;52.380;4.654;2023-01-15T15:02:00;6.30;99.90
16907;DHT22;8570;52.380;4.654;2023-01-15T15:07:13;6.30;99.90
16907;DHT22;8570;52.380;4.654;2023-01-15T15:12:28;6.40;99.90
16907;DHT22;8570;52.380;4.654;2023-01-15T15:18:00;6.40;99.90
16907;DHT22;8570;52.380;4.654;2023-01-15T15:23:14;6.50;99.90
16907;DHT22;8570;52.380;4.654;2023-01-15T15:29:05;7.10;99.90
16907;DHT22;8570;52.380;4.654;2023-01-15T15:34:28;7.10;99.90
16907;DHT22;8570;52.380;4.654;2023-01-15T15:39:41;7.00;99.90
16907;DHT22;8570;52.380;4.654;2023-01-15T15:45:14;6.80;99.90
16907;DHT22;8570;52.380;4.654;2023-01-15T15:50:47;6.70;99.90
16907;DHT22;8570;52.380;4.654;2023-01-15T15:56:14;6.70;99.90
16907;DHT22;8570;52.380;4.654;2023-01-15T16:13:24;6.70;99.90
16907;DHT22;8570;52.380;4.654;2023-01-15T16:18:44;6.70;99.90
16907;DHT22;8570;52.380;4.654;2023-01-15T16:23:58;6.70;99.90
16907;DHT22;8570;52.380;4.654;2023-01-15T16:29:15;6.70;99.90
16907;DHT22;8570;52.380;4.654;2023-01-15T16:34:27;6.70;99.90
16907;DHT22;8570;52.380;4.654;2023-01-15T16:39:37;6.80;99.90
16907;DHT22;8570;52.380;4.654;2023-01-15T16:44:50;6.80;99.90
16907;DHT22;8570;52.380;4.654;2023-01-15T16:55:53;6.90;99.90
16907;DHT22;8570;52.380;4.654;2023-01-15T17:00:58;7.00;99.90
16907;DHT22;8570;52.380;4.654;2023-01-15T17:06:11;7.00;99.90
16907;DHT22;8570;52.380;4.654;2023-01-15T17:11:25;7.00;99.90
16907;DHT22;8570;52.380;4.654;2023-01-15T17:16:30;7.00;99.90
16907;DHT22;8570;52.380;4.654;2023-01-15T17:21:32;6.90;99.90
16907;DHT22;8570;52.380;4.654;2023-01-15T17:26:35;6.90;99.90
16907;DHT22;8570;52.380;4.654;2023-01-15T17:31:51;6.90;99.90
16907;DHT22;8570;52.380;4.654;2023-01-15T17:36:53;6.90;99.90
16907;DHT22;8570;52.380;4.654;2023-01-15T17:41:56;6.80;99.90
16907;DHT22;8570;52.380;4.654;2023-01-15T17:46:59;6.70;99.90
16907;DHT22;8570;52.380;4.654;2023-01-15T17:52:03;6.60;99.90
16907;DHT22;8570;52.380;4.654;2023-01-15T17:57:07;6.50;99.90
16907;DHT22;8570;52.380;4.654;2023-01-15T18:02:28;6.30;99.90
16907;DHT22;8570;52.380;4.654;2023-01-15T18:07:47;6.20;99.90
16907;DHT22;8570;52.380;4.654;2023-01-15T18:12:49;6.20;99.90
16907;DHT22;8570;52.380;4.654;2023-01-15T18:18:01;6.20;99.90
16907;DHT22;8570;52.380;4.654;2023-01-15T18:23:20;6.10;99.90
16907;DHT22;8570;52.380;4.654;2023-01-15T18:28:26;6.20;99.90
16907;DHT22;8570;52.380;4.654;2023-01-15T18:33:40;6.40;99.90
16907;DHT22;8570;52.380;4.654;2023-01-15T18:38:43;6.30;99.90
16907;DHT22;8570;52.380;4.654;2023-01-15T18:43:57;6.10;99.90
16907;DHT22;8570;52.380;4.654;2023-01-15T18:49:22;6.00;99.90
16907;DHT22;8570;52.380;4.654;2023-01-15T18:54:26;5.90;99.90
16907;DHT22;8570;52.380;4.654;2023-01-15T18:59:28;5.90;99.90
16907;DHT22;8570;52.380;4.654;2023-01-15T19:04:32;6.00;99.90
16907;DHT22;8570;52.380;4.654;2023-01-15T19:09:34;6.20;99.90
16907;DHT22;8570;52.380;4.654;2023-01-15T19:14:40;6.10;99.90
16907;DHT22;8570;52.380;4.654;2023-01-15T19:20:02;6.10;99.90
16907;DHT22;8570;52.380;4.654;2023-01-15T19:25:05;6.10;99.90
16907;DHT22;8570;52.380;4.654;2023-01-15T19:30:10;6.00;99.90
16907;DHT22;8570;52.380;4.654;2023-01-15T19:35:16;5.80;99.90
16907;DHT22;8570;52.380;4.654;2023-01-15T19:40:24;5.70;99.90
16907;DHT22;8570;52.380;4.654;2023-01-15T19:45:27;5.60;99.90
16907;DHT22;8570;52.380;4.654;2023-01-15T19:50:54;5.50;99.90
16907;DHT22;8570;52.380;4.654;2023-01-15T19:55:59;5.40;99.90
16907;DHT22;8570;52.380;4.654;2023-01-15T20:01:11;5.40;99.90
16907;DHT22;8570;52.380;4.654;2023-01-15T20:06:18;5.30;99.90
16907;DHT22;8570;52.380;4.654;2023-01-15T20:11:23;5.20;99.90
16907;DHT22;8570;52.380;4.654;2023-01-15T20:16:45;5.10;99.90
16907;DHT22;8570;52.380;4.654;2023-01-15T20:21:48;5.10;99.90
16907;DHT22;8570;52.380;4.654;2023-01-15T20:26:53;5.00;99.90
16907;DHT22;8570;52.380;4.654;2023-01-15T20:31:55;5.00;99.90
16907;DHT22;8570;52.380;4.654;2023-01-15T20:36:59;5.00;99.90
16907;DHT22;8570;52.380;4.654;2023-01-15T20:42:02;5.30;99.90
16907;DHT22;8570;52.380;4.654;2023-01-15T20:47:24;5.40;99.90
16907;DHT22;8570;52.380;4.654;2023-01-15T20:52:49;5.70;99.90
16907;DHT22;8570;52.380;4.654;2023-01-15T20:57:54;5.60;99.90
16907;DHT22;8570;52.380;4.654;2023-01-15T21:02:56;5.80;99.90
16907;DHT22;8570;52.380;4.654;2023-01-15T21:08:06;5.70;99.90
16907;DHT22;8570;52.380;4.654;2023-01-15T21:13:23;5.60;99.90
16907;DHT22;8570;52.380;4.654;2023-01-15T21:18:26;5.50;99.90
16907;DHT22;8570;52.380;4.654;2023-01-15T21:23:30;5.30;99.90
16907;DHT22;8570;52.380;4.654;2023-01-15T21:28:32;5.20;99.90
16907;DHT22;8570;52.380;4.654;2023-01-15T21:33:35;5.00;99.90
16907;DHT22;8570;52.380;4.654;2023-01-15T21:39:04;4.90;99.90
16907;DHT22;8570;52.380;4.654;2023-01-15T21:44:13;4.80;99.90
16907;DHT22;8570;52.380;4.654;2023-01-15T21:49:35;4.70;99.90
16907;DHT22;8570;52.380;4.654;2023-01-15T21:54:45;4.70;99.90
16907;DHT22;8570;52.380;4.654;2023-01-15T22:00:01;4.60;99.90
16907;DHT22;8570;52.380;4.654;2023-01-15T22:05:10;4.60;99.90
16907;DHT22;8570;52.380;4.654;2023-01-15T22:10:14;4.60;99.90
16907;DHT22;8570;52.380;4.654;2023-01-15T22:15:18;4.50;99.90
16907;DHT22;8570;52.380;4.654;2023-01-15T22:20:33;4.50;99.90
16907;DHT22;8570;52.380;4.654;2023-01-15T22:25:37;4.50;99.90
16907;DHT22;8570;52.380;4.654;2023-01-15T22:30:47;4.50;99.90
16907;DHT22;8570;52.380;4.654;2023-01-15T22:35:57;4.50;99.90
16907;DHT22;8570;52.380;4.654;2023-01-15T22:41:08;4.50;99.90
16907;DHT22;8570;52.380;4.654;2023-01-15T22:46:16;4.40;99.90
16907;DHT22;8570;52.380;4.654;2023-01-15T22:51:20;4.40;99.90
16907;DHT22;8570;52.380;4.654;2023-01-15T22:56:25;4.40;99.90
16907;DHT22;8570;52.380;4.654;2023-01-15T23:01:31;4.40;99.90
16907;DHT22;8570;52.380;4.654;2023-01-15T23:06:33;4.40;99.90
16907;DHT22;8570;52.380;4.654;2023-01-15T23:11:37;4.40;99.90
16907;DHT22;8570;52.380;4.654;2023-01-15T23:16:39;4.40;99.90
16907;DHT22;8570;52.380;4.654;2023-01-15T23:21:45;4.30;99.90
16907;DHT22;8570;52.380;4.654;2023-01-15T23:26:48;4.30;99.90
16907;DHT22;8570;52.380;4.654;2023-01-15T23:31:57;4.30;99.90
16907;DHT22;8570;52.380;4.654;2023-01-15T23:37:07;4.30;99.90
16907;DHT22;8570;52.380;4.654;2023-01-15T23:42:15;4.20;99.90
16907;DHT22;8570;52.380;4.654;2023-01-15T23:47:40;4.20;99.90
16907;DHT22;8570;52.380;4.654;2023-01-15T23:52:53;4.20;99.90
16907;DHT22;8570;52.380;4.654;2023-01-15T23:57:57;4.30;99.90
